Webcam Flughafen St.Gallen-Altenrhein

Live-Bilder und Zeitraffer LSZR / ACH.

 

Live aus Altenrhein
LIVE
LSZR 181820Z 13004KT 110V180 9999 BKN046 06/M00 Q1022 NOSIG RMK Q
Zeitraffer heute
2019-03-18 00:14:22
LSZR 172250Z AUTO 28007KT 210V330 9999 BKN031 04/00 Q1017
Zeitraffer gestern
2019-03-17 00:14:40
LSZR 162250Z AUTO 34003KT 280V060 9999 -RA BKN/// 05/02 Q1011
Zeitraffer vor 3 Tagen
2019-03-15 00:14:03
LSZR 142250Z AUTO 26010KT 220V320 9999 FEW041 OVC046 06/04 Q1011